createdAt,value
2019-04-27T00:02:26.624Z,5.57
2019-04-27T00:05:15.940Z,4.57
2019-04-27T00:08:02.945Z,5.00
2019-04-27T00:11:06.895Z,4.30
2019-04-27T00:13:40.427Z,4.13
2019-04-27T00:16:34.762Z,4.50
2019-04-27T00:19:15.445Z,4.40
2019-04-27T00:21:55.254Z,5.33
2019-04-27T00:24:25.529Z,5.60
2019-04-27T00:26:55.875Z,4.93
2019-04-27T00:29:26.279Z,5.10
2019-04-27T00:31:56.628Z,5.57
2019-04-27T00:34:27.021Z,5.65
2019-04-27T00:37:06.837Z,5.00
2019-04-27T00:39:43.308Z,4.63
2019-04-27T00:42:13.688Z,4.83
2019-04-27T00:44:44.034Z,5.57
2019-04-27T00:47:14.393Z,5.47
2019-04-27T00:49:44.386Z,5.60
2019-04-27T00:52:14.052Z,4.80
2019-04-27T00:54:44.320Z,5.40
2019-04-27T00:57:33.237Z,6.47
2019-04-27T01:00:31.662Z,6.20
2019-04-27T01:03:10.594Z,6.00
2019-04-27T01:05:40.884Z,6.27
2019-04-27T01:08:11.231Z,7.27
2019-04-27T01:10:41.591Z,5.23
2019-04-27T01:13:13.226Z,7.53
2019-04-27T01:15:43.860Z,6.63
2019-04-27T01:18:15.497Z,7.80
2019-04-27T01:20:45.550Z,6.90
2019-04-27T01:23:15.930Z,6.40
2019-04-27T01:25:59.847Z,6.30
2019-04-27T01:28:34.615Z,6.42
2019-04-27T01:31:07.253Z,5.17
2019-04-27T01:33:38.820Z,5.85
2019-04-27T01:36:10.573Z,6.30
2019-04-27T01:38:40.992Z,6.03
2019-04-27T01:41:11.502Z,7.20
2019-04-27T01:43:41.886Z,7.97
2019-04-27T01:46:12.224Z,7.63
2019-04-27T01:48:42.643Z,7.87
2019-04-27T01:51:13.062Z,6.97
2019-04-27T01:53:42.816Z,5.40
2019-04-27T01:56:13.181Z,4.17
2019-04-27T01:58:43.597Z,3.57
2019-04-27T02:01:39.484Z,3.33
2019-04-27T02:04:24.785Z,3.00
2019-04-27T02:06:56.595Z,2.43
2019-04-27T02:09:28.793Z,2.63
2019-04-27T02:11:59.191Z,3.47
2019-04-27T02:14:29.714Z,2.65
2019-04-27T02:17:00.162Z,3.10
2019-04-27T02:19:31.277Z,3.60
2019-04-27T02:22:01.733Z,3.07
2019-04-27T02:24:32.106Z,2.92
2019-04-27T02:27:02.472Z,4.13
2019-04-27T02:29:54.730Z,3.40
2019-04-27T02:32:42.211Z,2.90
2019-04-27T02:35:15.217Z,3.63
2019-04-27T02:37:44.974Z,3.57
2019-04-27T02:40:42.388Z,4.17
2019-04-27T02:43:11.205Z,3.97
2019-04-27T02:45:41.492Z,3.50
2019-04-27T02:48:11.892Z,3.77
2019-04-27T02:50:42.623Z,3.47
2019-04-27T02:53:12.974Z,3.80
2019-04-27T02:55:43.472Z,4.20
2019-04-27T02:58:13.885Z,4.13
2019-04-27T03:00:44.249Z,3.30
2019-04-27T03:03:15.374Z,2.80
2019-04-27T03:05:45.083Z,2.93
2019-04-27T03:08:15.374Z,3.50
2019-04-27T03:10:45.102Z,3.37
2019-04-27T03:13:25.080Z,2.97
2019-04-27T03:16:11.395Z,2.70
2019-04-27T03:19:11.470Z,2.73
2019-04-27T03:21:50.868Z,2.65
2019-04-27T03:24:24.116Z,4.97
2019-04-27T03:26:59.968Z,3.27
2019-04-27T03:29:30.646Z,3.70
2019-04-27T03:32:01.934Z,3.47
2019-04-27T03:34:32.663Z,2.90
2019-04-27T03:37:02.944Z,3.10
2019-04-27T03:39:33.308Z,3.27
2019-04-27T03:42:03.857Z,4.17
2019-04-27T03:44:34.225Z,3.63
2019-04-27T03:47:04.600Z,4.25
2019-04-27T03:49:38.060Z,4.20
2019-04-27T03:52:19.823Z,3.40
2019-04-27T03:54:55.343Z,4.60
2019-04-27T03:57:43.012Z,3.87
2019-04-27T04:00:19.905Z,5.00
2019-04-27T04:02:50.513Z,3.40
2019-04-27T04:05:20.946Z,4.03
2019-04-27T04:07:51.600Z,3.90
2019-04-27T04:10:23.034Z,4.00
2019-04-27T04:13:15.451Z,3.93
2019-04-27T04:16:07.989Z,3.30
2019-04-27T04:18:57.173Z,3.37
2019-04-27T04:21:29.839Z,3.85
2019-04-27T04:24:00.981Z,3.77
2019-04-27T04:26:32.684Z,2.93
2019-04-27T04:29:02.625Z,2.57
2019-04-27T04:31:33.509Z,3.03
2019-04-27T04:34:03.947Z,3.40
2019-04-27T04:36:34.359Z,3.90
2019-04-27T04:39:06.652Z,3.00
2019-04-27T04:41:52.035Z,3.30
2019-04-27T04:44:36.671Z,3.60
2019-04-27T04:47:13.710Z,3.90
2019-04-27T04:49:44.083Z,3.23
2019-04-27T04:52:14.516Z,3.67
2019-04-27T04:54:45.040Z,4.60
2019-04-27T04:57:15.511Z,4.10
2019-04-27T04:59:45.827Z,5.10
2019-04-27T05:02:16.212Z,4.57
2019-04-27T05:04:46.562Z,3.87
2019-04-27T05:07:16.270Z,3.13
2019-04-27T05:09:46.557Z,3.40
2019-04-27T05:12:16.950Z,4.40
2019-04-27T05:14:48.953Z,5.13
2019-04-27T05:17:19.626Z,5.40
2019-04-27T05:19:50.816Z,3.87
2019-04-27T05:22:21.029Z,3.60
2019-04-27T05:25:00.562Z,4.07
2019-04-27T05:27:30.932Z,3.22
2019-04-27T05:30:01.776Z,2.70
2019-04-27T05:32:32.166Z,2.92
2019-04-27T05:35:02.550Z,3.03
2019-04-27T05:37:33.006Z,3.57
2019-04-27T05:40:03.359Z,3.47
2019-04-27T05:42:33.743Z,3.80
2019-04-27T05:45:22.938Z,3.87
2019-04-27T05:48:07.301Z,4.43
2019-04-27T05:50:43.097Z,4.97
2019-04-27T05:53:09.119Z,4.03
2019-04-27T05:55:39.465Z,4.40
2019-04-27T05:58:09.857Z,4.67
2019-04-27T06:00:39.606Z,3.43
2019-04-27T06:03:09.206Z,4.03
2019-04-27T06:05:39.193Z,4.40
2019-04-27T06:08:09.598Z,3.87
2019-04-27T06:10:40.023Z,3.43
2019-04-27T06:13:10.666Z,3.40
2019-04-27T06:15:41.129Z,3.47
2019-04-27T06:18:11.533Z,3.30
2019-04-27T06:20:51.311Z,3.53
2019-04-27T06:23:13.955Z,2.87
2019-04-27T06:25:44.378Z,3.67
2019-04-27T06:28:14.746Z,3.87
2019-04-27T06:30:45.139Z,4.60
2019-04-27T06:33:28.014Z,3.10
2019-04-27T06:35:49.449Z,3.63
2019-04-27T06:38:19.628Z,3.77
2019-04-27T06:40:50.030Z,2.93
2019-04-27T06:43:21.502Z,3.13
2019-04-27T06:45:51.270Z,3.37
2019-04-27T06:48:20.938Z,2.80
2019-04-27T06:51:02.795Z,2.40
2019-04-27T06:53:22.591Z,3.00
2019-04-27T06:55:52.977Z,2.70
2019-04-27T06:58:22.709Z,3.00
2019-04-27T07:00:52.351Z,2.93
2019-04-27T07:03:21.959Z,3.07
2019-04-27T07:05:52.280Z,2.70
2019-04-27T07:08:21.978Z,3.37
2019-04-27T07:10:51.657Z,2.73
2019-04-27T07:13:21.958Z,2.87
2019-04-27T07:15:52.330Z,3.10
2019-04-27T07:18:22.069Z,2.77
2019-04-27T07:20:52.394Z,3.37
2019-04-27T07:23:22.139Z,2.63
2019-04-27T07:25:52.725Z,2.83
2019-04-27T07:28:22.527Z,3.33
2019-04-27T07:30:52.825Z,2.87
2019-04-27T07:33:22.835Z,3.53
2019-04-27T07:35:53.318Z,3.53
2019-04-27T07:38:23.817Z,3.60
2019-04-27T07:40:54.359Z,2.33
2019-04-27T07:43:43.135Z,2.80
2019-04-27T07:46:12.800Z,2.33
2019-04-27T07:48:43.171Z,3.43
2019-04-27T07:51:13.605Z,2.93
2019-04-27T07:53:43.397Z,2.57
2019-04-27T07:56:13.662Z,3.00
2019-04-27T07:58:44.310Z,2.93
2019-04-27T08:01:14.069Z,3.50
2019-04-27T08:03:44.494Z,3.00
2019-04-27T08:06:14.961Z,3.27
2019-04-27T08:08:45.603Z,2.80
2019-04-27T08:11:16.131Z,2.80
2019-04-27T08:13:46.553Z,5.83
2019-04-27T08:16:18.346Z,3.67
2019-04-27T08:18:49.628Z,2.70
2019-04-27T08:21:20.259Z,2.87
2019-04-27T08:23:50.679Z,2.57
2019-04-27T08:26:30.391Z,2.77
2019-04-27T08:29:10.130Z,3.40
2019-04-27T08:31:45.034Z,2.90
2019-04-27T08:34:33.571Z,2.70
2019-04-27T08:37:04.865Z,2.70
2019-04-27T08:39:35.363Z,2.62
2019-04-27T08:42:05.987Z,3.00
2019-04-27T08:44:36.441Z,2.85
2019-04-27T08:47:06.250Z,3.37
2019-04-27T08:49:36.691Z,2.97
2019-04-27T08:52:06.439Z,2.90
2019-04-27T08:54:36.097Z,4.23
2019-04-27T08:57:05.751Z,3.30
2019-04-27T08:59:36.216Z,3.53
2019-04-27T09:02:05.979Z,3.37
2019-04-27T09:04:36.434Z,3.33
2019-04-27T09:07:24.085Z,3.07
2019-04-27T09:09:59.627Z,3.87
2019-04-27T09:12:53.731Z,3.00
2019-04-27T09:15:29.250Z,3.00
2019-04-27T09:18:00.693Z,3.00
2019-04-27T09:20:40.105Z,3.73
2019-04-27T09:23:10.019Z,3.50
2019-04-27T09:25:39.790Z,3.20
2019-04-27T09:28:09.583Z,3.00
2019-04-27T09:30:40.082Z,2.57
2019-04-27T09:33:09.976Z,4.07
2019-04-27T09:35:40.301Z,3.63
2019-04-27T09:38:10.831Z,3.40
2019-04-27T09:40:40.627Z,2.90
2019-04-27T09:43:10.971Z,3.00
2019-04-27T09:45:41.736Z,2.97
2019-04-27T09:48:12.143Z,3.10
2019-04-27T09:50:42.011Z,3.57
2019-04-27T09:53:12.298Z,2.37
2019-04-27T09:55:41.998Z,2.93
2019-04-27T09:58:12.267Z,3.03
2019-04-27T10:00:42.636Z,3.20
2019-04-27T10:03:13.087Z,2.60
2019-04-27T10:05:42.794Z,2.63
2019-04-27T10:08:13.085Z,2.87
2019-04-27T10:10:42.799Z,3.53
2019-04-27T10:13:13.124Z,3.23
2019-04-27T10:15:42.845Z,4.33
2019-04-27T10:18:13.146Z,3.00
2019-04-27T10:20:56.236Z,3.80
2019-04-27T10:23:14.875Z,3.17
2019-04-27T10:25:45.786Z,2.60
2019-04-27T10:28:15.518Z,2.63
2019-04-27T10:30:45.757Z,2.90
2019-04-27T10:33:16.488Z,2.80
2019-04-27T10:35:47.335Z,2.67
2019-04-27T10:38:18.461Z,3.50
2019-04-27T10:40:48.781Z,3.57
2019-04-27T10:43:18.936Z,2.90
2019-04-27T10:45:49.227Z,3.27
2019-04-27T10:48:18.989Z,2.97
2019-04-27T10:50:52.053Z,3.00
2019-04-27T10:53:21.765Z,3.30
2019-04-27T10:55:51.439Z,2.87
2019-04-27T10:58:21.081Z,3.03
2019-04-27T11:00:53.939Z,3.33
2019-04-27T11:03:43.266Z,3.00
2019-04-27T11:06:41.126Z,3.00
2019-04-27T11:09:13.066Z,2.87
2019-04-27T11:11:43.501Z,2.30
2019-04-27T11:14:13.291Z,2.63
2019-04-27T11:16:43.710Z,2.90
2019-04-27T11:19:16.924Z,1.97
2019-04-27T11:21:47.017Z,2.90
2019-04-27T11:24:17.398Z,2.37
2019-04-27T11:26:47.236Z,2.80
2019-04-27T11:29:17.721Z,2.63
2019-04-27T11:31:47.505Z,2.30
2019-04-27T11:34:18.568Z,2.80
2019-04-27T11:37:02.186Z,3.40
2019-04-27T11:39:31.907Z,2.90
2019-04-27T11:42:02.214Z,3.30
2019-04-27T11:44:31.915Z,2.77
2019-04-27T11:47:02.328Z,2.30
2019-04-27T11:49:32.834Z,2.60
2019-04-27T11:52:03.311Z,2.33
2019-04-27T11:54:33.117Z,2.53
2019-04-27T11:57:03.638Z,2.50
2019-04-27T11:59:33.421Z,2.43
2019-04-27T12:02:03.792Z,6.87
2019-04-27T12:04:34.165Z,2.47
2019-04-27T12:07:06.448Z,2.50
2019-04-27T12:09:35.997Z,2.83
2019-04-27T12:12:14.905Z,1.73
2019-04-27T12:14:37.019Z,3.13
2019-04-27T12:17:06.775Z,1.87
2019-04-27T12:19:36.631Z,2.30
2019-04-27T12:22:07.037Z,2.17
2019-04-27T12:24:37.500Z,1.80
2019-04-27T12:27:21.951Z,2.23
2019-04-27T12:30:23.215Z,2.20
2019-04-27T12:32:55.635Z,2.40
2019-04-27T12:35:25.947Z,2.30
2019-04-27T12:37:58.997Z,1.73
2019-04-27T12:40:29.464Z,2.33
2019-04-27T12:43:00.123Z,2.10
2019-04-27T12:45:30.704Z,2.23
2019-04-27T12:48:00.499Z,1.87
2019-04-27T12:50:31.143Z,1.90
2019-04-27T12:53:04.530Z,1.95
2019-04-27T12:55:49.636Z,1.93
2019-04-27T12:58:30.624Z,2.33
2019-04-27T13:01:01.594Z,1.53
2019-04-27T13:03:33.558Z,2.07
2019-04-27T13:06:03.352Z,2.00
2019-04-27T13:08:35.625Z,1.97
2019-04-27T13:11:06.076Z,1.90
2019-04-27T13:13:36.784Z,2.20
2019-04-27T13:16:07.259Z,2.27
2019-04-27T13:18:37.038Z,2.03
2019-04-27T13:21:06.671Z,1.93
2019-04-27T13:23:37.133Z,2.03
2019-04-27T13:26:07.843Z,2.63
2019-04-27T13:28:38.386Z,2.33
2019-04-27T13:31:08.101Z,2.40
2019-04-27T13:33:37.770Z,3.03
2019-04-27T13:36:08.035Z,3.20
2019-04-27T13:38:37.771Z,2.87
2019-04-27T13:41:08.472Z,2.23
2019-04-27T13:43:38.309Z,1.57
2019-04-27T13:46:30.652Z,2.97
2019-04-27T13:49:19.938Z,1.90
2019-04-27T13:52:07.306Z,1.93
2019-04-27T13:54:37.046Z,1.70
2019-04-27T13:57:07.649Z,1.40
2019-04-27T13:59:38.381Z,1.75
2019-04-27T14:02:08.797Z,1.87
2019-04-27T14:04:38.706Z,1.70
2019-04-27T14:07:09.230Z,1.63
2019-04-27T14:09:39.667Z,2.43
2019-04-27T14:12:29.013Z,2.80
2019-04-27T14:14:59.143Z,2.37
2019-04-27T14:17:29.656Z,2.37
2019-04-27T14:20:00.079Z,2.60
2019-04-27T14:22:31.569Z,3.50
2019-04-27T14:25:02.019Z,2.80
2019-04-27T14:27:40.408Z,3.23
2019-04-27T14:30:12.002Z,3.07
2019-04-27T14:32:42.526Z,2.97
2019-04-27T14:35:13.000Z,4.57
2019-04-27T14:37:42.710Z,2.27
2019-04-27T14:40:13.110Z,2.90
2019-04-27T14:42:42.992Z,2.90
2019-04-27T14:45:13.440Z,1.97
2019-04-27T14:47:43.205Z,2.10
2019-04-27T14:50:12.927Z,2.63
2019-04-27T14:52:43.220Z,2.57
2019-04-27T14:55:12.910Z,1.90
2019-04-27T14:57:43.245Z,1.90
2019-04-27T15:00:14.733Z,2.13
2019-04-27T15:02:44.449Z,1.90
2019-04-27T15:05:14.278Z,1.93
2019-04-27T15:07:44.547Z,1.57
2019-04-27T15:10:16.235Z,2.03
2019-04-27T15:12:46.814Z,1.80
2019-04-27T15:15:17.384Z,1.93
2019-04-27T15:17:49.365Z,2.40
2019-04-27T15:20:30.618Z,1.73
2019-04-27T15:23:00.201Z,1.93
2019-04-27T15:25:35.368Z,1.80
2019-04-27T15:28:07.525Z,1.67
2019-04-27T15:31:22.800Z,1.67
2019-04-27T15:34:04.932Z,1.97
2019-04-27T15:36:52.863Z,1.70
2019-04-27T15:39:39.528Z,1.87
2019-04-27T15:42:11.888Z,1.27
2019-04-27T15:44:44.107Z,1.80
2019-04-27T15:47:14.349Z,1.60
2019-04-27T15:49:49.786Z,1.20
2019-04-27T15:52:17.847Z,1.40
2019-04-27T15:54:48.131Z,1.63
2019-04-27T15:57:20.741Z,1.30
2019-04-27T15:59:51.283Z,1.60
2019-04-27T16:02:22.708Z,1.80
2019-04-27T16:04:53.621Z,1.20
2019-04-27T16:07:25.313Z,1.40
2019-04-27T16:10:00.893Z,5.80
2019-04-27T16:12:28.386Z,1.60
2019-04-27T16:14:58.366Z,1.23
2019-04-27T16:17:31.773Z,1.40
2019-04-27T16:20:00.256Z,1.40
2019-04-27T16:22:30.579Z,1.40
2019-04-27T16:25:03.764Z,1.47
2019-04-27T16:27:34.188Z,1.23
2019-04-27T16:30:09.921Z,1.77
2019-04-27T16:32:40.346Z,1.70
2019-04-27T16:35:13.729Z,1.63
2019-04-27T16:38:02.740Z,2.20
2019-04-27T16:40:33.167Z,1.50
2019-04-27T16:43:02.937Z,1.43
2019-04-27T16:45:33.213Z,1.50
2019-04-27T16:48:03.594Z,1.90
2019-04-27T16:50:34.169Z,1.70
2019-04-27T16:53:04.020Z,2.37
2019-04-27T16:55:35.380Z,1.87
2019-04-27T16:58:09.621Z,2.17
2019-04-27T17:00:38.792Z,2.40
2019-04-27T17:03:09.216Z,1.80
2019-04-27T17:05:38.900Z,2.60
2019-04-27T17:08:13.990Z,2.60
2019-04-27T17:10:39.854Z,1.97
2019-04-27T17:13:14.307Z,2.43
2019-04-27T17:16:10.427Z,1.80
2019-04-27T17:18:45.716Z,2.00
2019-04-27T17:21:19.042Z,1.70
2019-04-27T17:23:48.156Z,2.10
2019-04-27T17:26:21.688Z,2.10
2019-04-27T17:28:54.364Z,2.03
2019-04-27T17:31:26.034Z,1.97
2019-04-27T17:34:01.096Z,1.97
2019-04-27T17:36:31.473Z,1.47
2019-04-27T17:39:01.962Z,1.50
2019-04-27T17:41:31.820Z,1.75
2019-04-27T17:44:02.249Z,1.27
2019-04-27T17:46:32.697Z,1.33
2019-04-27T17:49:02.588Z,1.50
2019-04-27T17:51:35.273Z,1.70
2019-04-27T17:54:09.753Z,1.30
2019-04-27T17:56:47.918Z,1.17
2019-04-27T17:59:10.381Z,0.87
2019-04-27T18:01:40.509Z,0.97
2019-04-27T18:04:11.005Z,0.90
2019-04-27T18:06:42.639Z,1.00
2019-04-27T18:09:18.556Z,1.10
2019-04-27T18:11:50.208Z,1.77
2019-04-27T18:14:19.630Z,1.10
2019-04-27T18:16:49.931Z,0.80
2019-04-27T18:19:28.333Z,1.17
2019-04-27T18:22:00.807Z,0.97
2019-04-27T18:25:03.284Z,1.12
2019-04-27T18:27:54.103Z,1.10
2019-04-27T18:30:28.178Z,1.00
2019-04-27T18:33:01.946Z,1.57
2019-04-27T18:35:29.830Z,1.37
2019-04-27T18:38:01.667Z,2.90
2019-04-27T18:40:32.608Z,1.13
2019-04-27T18:43:06.505Z,1.17
2019-04-27T18:45:33.407Z,1.30
2019-04-27T18:48:13.699Z,1.40
2019-04-27T18:50:52.174Z,1.50
2019-04-27T18:53:24.871Z,1.33
2019-04-27T18:55:59.405Z,1.47
2019-04-27T18:58:26.597Z,1.43
2019-04-27T19:00:59.092Z,1.40
2019-04-27T19:03:31.105Z,2.10
2019-04-27T19:06:02.097Z,1.60
2019-04-27T19:08:32.485Z,1.10
2019-04-27T19:11:04.864Z,1.30
2019-04-27T19:13:34.234Z,1.67
2019-04-27T19:16:04.617Z,1.40
2019-04-27T19:18:35.040Z,1.53
2019-04-27T19:21:05.472Z,1.37
2019-04-27T19:23:36.053Z,2.83
2019-04-27T19:26:21.847Z,1.43
2019-04-27T19:29:16.456Z,1.60
2019-04-27T19:31:50.502Z,1.40
2019-04-27T19:34:20.920Z,1.70
2019-04-27T19:36:50.727Z,1.63
2019-04-27T19:39:21.012Z,1.50
2019-04-27T19:42:00.151Z,1.70
2019-04-27T19:44:23.449Z,2.00
2019-04-27T19:46:53.145Z,1.73
2019-04-27T19:49:22.730Z,2.17
2019-04-27T19:51:53.027Z,1.60
2019-04-27T19:54:23.390Z,1.83
2019-04-27T19:56:53.770Z,2.10
2019-04-27T19:59:34.445Z,1.57
2019-04-27T20:02:08.983Z,1.10
2019-04-27T20:04:40.996Z,1.30
2019-04-27T20:07:11.441Z,1.30
2019-04-27T20:10:00.698Z,1.40
2019-04-27T20:12:31.453Z,1.77
2019-04-27T20:15:04.659Z,2.13
2019-04-27T20:17:34.995Z,1.70
2019-04-27T20:20:07.463Z,1.83
2019-04-27T20:22:37.204Z,1.50
2019-04-27T20:25:07.670Z,1.53
2019-04-27T20:27:46.057Z,1.53
2019-04-27T20:30:11.121Z,2.00
2019-04-27T20:32:41.722Z,1.83
2019-04-27T20:35:11.864Z,1.77
2019-04-27T20:37:42.311Z,1.77
2019-04-27T20:40:13.568Z,1.63
2019-04-27T20:42:43.971Z,2.20
2019-04-27T20:45:14.424Z,1.80
2019-04-27T20:47:44.849Z,1.57
2019-04-27T20:50:15.205Z,2.20
2019-04-27T20:52:53.697Z,1.60
2019-04-27T20:55:24.391Z,1.80
2019-04-27T20:58:01.332Z,2.17
2019-04-27T21:00:26.890Z,1.40
2019-04-27T21:03:19.385Z,1.90
2019-04-27T21:06:14.244Z,2.20
2019-04-27T21:08:44.841Z,1.73
2019-04-27T21:11:15.222Z,2.03
2019-04-27T21:13:45.588Z,2.50
2019-04-27T21:16:16.005Z,2.13
2019-04-27T21:18:46.447Z,2.37
2019-04-27T21:21:16.817Z,2.13
2019-04-27T21:23:47.194Z,1.40
2019-04-27T21:26:17.548Z,1.87
2019-04-27T21:28:48.034Z,1.90
2019-04-27T21:31:18.536Z,2.13
2019-04-27T21:33:48.923Z,2.70
2019-04-27T21:36:18.637Z,1.93
2019-04-27T21:38:48.894Z,1.63
2019-04-27T21:41:18.621Z,1.50
2019-04-27T21:43:48.219Z,1.70
2019-04-27T21:46:18.505Z,1.70
2019-04-27T21:48:48.861Z,2.73
2019-04-27T21:51:19.235Z,2.60
2019-04-27T21:54:04.175Z,1.87
2019-04-27T21:56:34.521Z,2.03
2019-04-27T21:59:05.025Z,1.80
2019-04-27T22:01:36.282Z,1.77
2019-04-27T22:04:06.674Z,1.73
2019-04-27T22:06:37.006Z,2.07
2019-04-27T22:09:10.841Z,2.27
2019-04-27T22:11:41.431Z,2.13
2019-04-27T22:14:11.712Z,2.07
2019-04-27T22:16:42.139Z,1.60
2019-04-27T22:19:12.128Z,2.13
2019-04-27T22:21:42.394Z,2.10
2019-04-27T22:24:29.012Z,2.20
2019-04-27T22:26:59.429Z,2.37
2019-04-27T22:29:29.893Z,3.87
2019-04-27T22:32:01.718Z,2.37
2019-04-27T22:34:31.369Z,2.47
2019-04-27T22:37:02.689Z,2.57
2019-04-27T22:39:48.378Z,18.27
2019-04-27T22:42:44.101Z,2.30
2019-04-27T22:45:23.277Z,2.07
2019-04-27T22:47:53.584Z,2.90
2019-04-27T22:50:23.378Z,1.90
2019-04-27T22:52:53.627Z,3.70
2019-04-27T22:55:23.346Z,2.57
2019-04-27T22:57:58.640Z,2.33
2019-04-27T23:00:48.012Z,2.33
2019-04-27T23:03:23.800Z,2.40
2019-04-27T23:05:54.509Z,1.93
2019-04-27T23:08:24.867Z,2.65
2019-04-27T23:10:54.597Z,2.47
2019-04-27T23:13:24.876Z,2.17
2019-04-27T23:15:56.914Z,1.70
2019-04-27T23:18:27.283Z,2.27
2019-04-27T23:20:57.075Z,2.07
2019-04-27T23:23:27.333Z,2.13
2019-04-27T23:25:57.791Z,2.63
2019-04-27T23:28:28.161Z,2.73
2019-04-27T23:31:21.005Z,2.20
2019-04-27T23:33:51.826Z,1.43
2019-04-27T23:36:21.723Z,2.70
2019-04-27T23:38:52.088Z,2.10
2019-04-27T23:41:22.481Z,2.20
2019-04-27T23:43:52.859Z,2.30
2019-04-27T23:46:22.601Z,2.50
2019-04-27T23:48:53.892Z,2.07
2019-04-27T23:51:43.120Z,2.63
2019-04-27T23:54:12.797Z,2.00
2019-04-27T23:56:43.077Z,2.40
2019-04-27T23:59:24.147Z,2.43
